Time;durP1;ratioP1;P1;durP2;ratioP2;P2;SDS_P1;SDS_P2;PMS_P1;PMS_P2;Temp;Humidity;BMP_temperature;BMP_pressure;BME280_temperature;BME280_humidity;BME280_pressure;Samples;Min_cycle;Max_cycle;Signal;HPM_P1;HPM_P2
2023/06/25 00:02:59;;;;;;;5.47;4.97;;;25.40;81.50;;;;;;6209707;28;84040;-68
2023/06/25 00:06:01;;;;;;;5.68;5.18;;;25.40;81.50;;;;;;6205271;28;84120;-68
2023/06/25 00:09:05;;;;;;;5.00;4.60;;;25.40;81.50;;;;;;6204767;28;83937;-68
2023/06/25 00:12:08;;;;;;;5.00;4.60;;;25.40;81.60;;;;;;6207693;28;84049;-66
2023/06/25 00:15:11;;;;;;;5.10;4.60;;;25.40;81.60;;;;;;6203362;28;84388;-66
2023/06/25 00:18:13;;;;;;;5.30;4.80;;;25.40;81.70;;;;;;6202769;28;84819;-68
2023/06/25 00:21:15;;;;;;;5.50;5.00;;;25.30;81.60;;;;;;6197580;28;82523;-68
2023/06/25 00:24:20;;;;;;;4.90;4.40;;;25.30;81.60;;;;;;6199360;28;84332;-68
2023/06/25 00:27:22;;;;;;;5.18;4.68;;;25.30;81.60;;;;;;6206383;28;84155;-68
2023/06/25 00:30:24;;;;;;;5.57;4.80;;;25.30;81.60;;;;;;6210206;28;84071;-68
2023/06/25 00:33:26;;;;;;;5.68;5.18;;;25.30;81.70;;;;;;6213524;28;84794;-68
2023/06/25 00:36:36;;;;;;;5.57;5.07;;;25.30;81.40;;;;;;6198956;28;84595;-68
2023/06/25 00:39:43;;;;;;;6.40;4.93;;;25.30;81.40;;;;;;6209077;28;83393;-66
2023/06/25 00:42:49;;;;;;;5.40;4.90;;;25.30;81.40;;;;;;6207338;28;82902;-69
2023/06/25 00:45:51;;;;;;;5.07;4.57;;;25.30;81.40;;;;;;6206184;28;84650;-67
2023/06/25 00:48:53;;;;;;;5.07;4.60;;;25.20;81.30;;;;;;6210174;28;85010;-67
2023/06/25 00:51:55;;;;;;;4.72;4.32;;;25.30;81.30;;;;;;6193668;28;84461;-68
2023/06/25 00:54:59;;;;;;;4.85;4.45;;;25.20;81.20;;;;;;6208063;28;82880;-68
2023/06/25 00:58:01;;;;;;;5.00;4.50;;;25.20;81.20;;;;;;6207642;28;82952;-68
2023/06/25 01:01:04;;;;;;;5.05;4.63;;;25.20;81.30;;;;;;6197779;28;82943;-68
2023/06/25 01:04:13;;;;;;;4.68;4.28;;;25.20;81.20;;;;;;6196469;28;84001;-68
2023/06/25 01:07:17;;;;;;;4.60;4.20;;;25.20;81.20;;;;;;6204116;28;83856;-68
2023/06/25 01:10:21;;;;;;;5.10;4.60;;;25.20;81.20;;;;;;6212349;28;83604;-68
2023/06/25 01:13:23;;;;;;;4.97;4.47;;;25.20;81.20;;;;;;6201221;28;84051;-68
2023/06/25 01:16:25;;;;;;;5.00;4.50;;;25.20;81.10;;;;;;6198153;28;83192;-68
2023/06/25 01:19:31;;;;;;;5.22;4.68;;;25.20;81.10;;;;;;6197975;28;85000;-68
2023/06/25 01:22:34;;;;;;;5.55;4.43;;;25.20;81.10;;;;;;6208246;28;83501;-68
2023/06/25 01:25:38;;;;;;;4.65;4.25;;;25.20;81.20;;;;;;6207689;28;84048;-68
2023/06/25 01:28:39;;;;;;;5.53;4.45;;;25.20;81.20;;;;;;6189702;28;84071;-67
2023/06/25 01:31:41;;;;;;;7.45;5.45;;;25.20;81.20;;;;;;6203520;28;83277;-67
2023/06/25 01:34:44;;;;;;;4.93;4.45;;;25.20;81.20;;;;;;6208452;28;84004;-68
2023/06/25 01:37:48;;;;;;;4.72;4.22;;;25.10;81.20;;;;;;6207172;28;84046;-67
2023/06/25 01:40:50;;;;;;;5.07;4.47;;;25.20;81.60;;;;;;6214131;28;83121;-68
2023/06/25 01:43:51;;;;;;;5.15;4.22;;;25.20;81.40;;;;;;6215644;28;84417;-68
2023/06/25 01:46:53;;;;;;;6.03;4.75;;;25.10;81.30;;;;;;6205489;28;83984;-68
2023/06/25 01:49:55;;;;;;;5.50;4.93;;;25.10;81.40;;;;;;6191527;28;83975;-67
2023/06/25 01:52:59;;;;;;;5.82;4.85;;;25.10;81.50;;;;;;6189544;28;84108;-68
2023/06/25 01:56:01;;;;;;;4.78;4.38;;;25.10;81.50;;;;;;6207643;28;84430;-68
2023/06/25 01:59:03;;;;;;;5.50;5.00;;;25.10;81.30;;;;;;6206318;28;83922;-68
2023/06/25 02:02:05;;;;;;;5.40;4.90;;;25.10;81.40;;;;;;6198015;28;84023;-68
2023/06/25 02:05:08;;;;;;;6.53;5.22;;;25.10;81.30;;;;;;6199674;28;83810;-69
2023/06/25 02:08:11;;;;;;;5.30;4.80;;;25.10;81.50;;;;;;6201085;28;84123;-68
2023/06/25 02:11:13;;;;;;;7.28;5.32;;;25.10;81.30;;;;;;6206662;28;82698;-68
2023/06/25 02:14:15;;;;;;;5.45;4.90;;;25.10;81.10;;;;;;6208598;28;84123;-68
2023/06/25 02:17:17;;;;;;;6.40;4.85;;;25.10;81.00;;;;;;6207626;28;84137;-68
2023/06/25 02:20:20;;;;;;;5.82;5.10;;;25.10;81.00;;;;;;6202427;28;85410;-68
2023/06/25 02:23:23;;;;;;;5.20;4.70;;;25.10;81.10;;;;;;6202561;28;83844;-67
2023/06/25 02:26:25;;;;;;;6.03;5.40;;;25.10;80.90;;;;;;6200940;28;83226;-68
2023/06/25 02:29:27;;;;;;;6.43;5.20;;;25.10;80.90;;;;;;6204776;28;84384;-68
2023/06/25 02:32:29;;;;;;;6.10;4.95;;;25.00;80.90;;;;;;6203114;28;82982;-68
2023/06/25 02:35:31;;;;;;;5.20;4.70;;;25.00;80.80;;;;;;6204027;28;84864;-68
2023/06/25 02:38:34;;;;;;;5.57;5.00;;;25.00;80.80;;;;;;6201964;28;83947;-68
2023/06/25 02:41:36;;;;;;;5.82;5.22;;;25.00;80.80;;;;;;6200741;28;83316;-68
2023/06/25 02:44:38;;;;;;;6.15;5.55;;;25.00;80.70;;;;;;6214562;28;84033;-69
2023/06/25 02:47:40;;;;;;;6.00;5.40;;;25.00;80.90;;;;;;6200872;28;84088;-68
2023/06/25 02:50:43;;;;;;;5.60;5.07;;;25.00;81.00;;;;;;6199294;28;85073;-68
2023/06/25 02:53:49;;;;;;;6.40;5.40;;;25.00;80.90;;;;;;6215686;28;84192;-68
2023/06/25 02:56:53;;;;;;;5.47;4.95;;;25.00;80.80;;;;;;6213240;28;84079;-68
2023/06/25 02:59:56;;;;;;;5.88;5.35;;;25.00;80.80;;;;;;6198322;28;82752;-68
2023/06/25 03:02:58;;;;;;;5.90;5.30;;;25.00;80.70;;;;;;6207502;28;84138;-68
2023/06/25 03:06:00;;;;;;;6.00;5.43;;;25.00;80.70;;;;;;6194349;28;83882;-69
2023/06/25 03:09:03;;;;;;;5.70;5.10;;;25.00;81.50;;;;;;6189158;28;84051;-69
2023/06/25 03:12:07;;;;;;;6.00;5.20;;;25.00;80.70;;;;;;6190536;28;83621;-68
2023/06/25 03:15:10;;;;;;;6.43;5.75;;;24.90;80.50;;;;;;6207761;28;84112;-68
2023/06/25 03:18:12;;;;;;;7.53;6.10;;;24.90;80.50;;;;;;6223061;28;84043;-68
2023/06/25 03:21:13;;;;;;;5.03;4.53;;;24.90;80.60;;;;;;6203369;28;84979;-68
2023/06/25 03:24:17;;;;;;;5.40;4.90;;;25.00;80.60;;;;;;6208655;28;84438;-68
2023/06/25 03:27:19;;;;;;;6.25;4.43;;;24.90;80.50;;;;;;6222925;28;84000;-68
2023/06/25 03:30:21;;;;;;;5.10;4.70;;;25.00;80.60;;;;;;6225059;28;84109;-68
2023/06/25 03:33:23;;;;;;;5.50;5.00;;;24.90;80.30;;;;;;6208547;28;84057;-68
2023/06/25 03:36:25;;;;;;;5.65;5.05;;;24.90;80.40;;;;;;6211716;28;84452;-68
2023/06/25 03:39:28;;;;;;;6.70;5.40;;;25.00;80.50;;;;;;6210012;28;84317;-67
2023/06/25 03:42:30;;;;;;;6.70;5.43;;;24.90;80.50;;;;;;6199170;28;83253;-68
2023/06/25 03:45:32;;;;;;;5.88;5.35;;;24.90;80.40;;;;;;6213370;28;84047;-68
2023/06/25 03:48:34;;;;;;;5.30;4.80;;;24.90;80.20;;;;;;6197914;28;82969;-68
2023/06/25 03:51:36;;;;;;;6.00;5.22;;;24.90;80.30;;;;;;6203228;28;85032;-68
2023/06/25 03:54:40;;;;;;;6.05;5.45;;;24.90;80.10;;;;;;6192521;28;84013;-68
2023/06/25 03:57:42;;;;;;;5.85;5.35;;;24.90;80.30;;;;;;6187146;28;84025;-68
2023/06/25 04:00:44;;;;;;;5.97;5.07;;;24.90;80.50;;;;;;6193110;28;82897;-68
2023/06/25 04:03:46;;;;;;;6.43;5.78;;;24.90;80.30;;;;;;6194617;28;84161;-67
2023/06/25 04:06:48;;;;;;;6.40;5.80;;;24.90;80.40;;;;;;6201304;28;84041;-67
2023/06/25 04:09:52;;;;;;;6.10;5.38;;;24.90;80.30;;;;;;6207915;28;84523;-69
2023/06/25 04:12:53;;;;;;;7.22;5.80;;;24.90;80.40;;;;;;6192250;28;85067;-68
2023/06/25 04:15:55;;;;;;;6.28;5.78;;;24.90;80.50;;;;;;6194352;28;84440;-67
2023/06/25 04:18:57;;;;;;;6.07;5.57;;;24.90;80.50;;;;;;6190813;28;84174;-68
2023/06/25 04:21:59;;;;;;;5.20;4.70;;;24.90;80.50;;;;;;6205990;28;83834;-68
2023/06/25 04:25:03;;;;;;;5.90;5.40;;;24.90;80.40;;;;;;6210626;28;84803;-68
2023/06/25 04:28:05;;;;;;;6.57;5.70;;;24.90;80.50;;;;;;6217418;28;84068;-68
2023/06/25 04:31:07;;;;;;;6.10;5.50;;;24.90;80.60;;;;;;6207916;28;84045;-67
2023/06/25 04:34:09;;;;;;;6.45;5.80;;;24.90;80.60;;;;;;6197593;28;84076;-68
2023/06/25 04:37:11;;;;;;;5.93;5.32;;;24.90;80.60;;;;;;6218503;28;84472;-68
2023/06/25 04:40:16;;;;;;;6.28;5.75;;;24.90;80.60;;;;;;6187975;28;83668;-68
2023/06/25 04:43:18;;;;;;;5.88;5.28;;;24.90;80.60;;;;;;6215500;28;83032;-68
2023/06/25 04:46:20;;;;;;;6.00;5.40;;;24.90;80.60;;;;;;6232939;28;84337;-67
2023/06/25 04:49:22;;;;;;;5.90;5.30;;;24.90;80.60;;;;;;6215885;28;83996;-68
2023/06/25 04:52:23;;;;;;;7.57;5.40;;;24.90;80.60;;;;;;6217311;28;84955;-68
2023/06/25 04:55:29;;;;;;;5.88;5.32;;;24.90;80.70;;;;;;6211147;28;84093;-68
2023/06/25 04:58:30;;;;;;;6.95;5.70;;;24.90;80.70;;;;;;6218628;28;84028;-68
2023/06/25 05:01:32;;;;;;;7.22;5.85;;;24.90;80.80;;;;;;6209850;28;84032;-67
2023/06/25 05:04:34;;;;;;;6.03;5.38;;;24.90;80.80;;;;;;6204194;28;84076;-68
2023/06/25 05:07:36;;;;;;;5.88;5.25;;;24.90;80.80;;;;;;6231839;28;84005;-67
2023/06/25 05:10:42;;;;;;;7.35;5.32;;;24.90;80.80;;;;;;6200888;28;84380;-68
2023/06/25 05:13:44;;;;;;;5.50;5.00;;;24.90;80.90;;;;;;6230074;28;83351;-68
2023/06/25 05:16:46;;;;;;;6.72;5.78;;;25.00;81.00;;;;;;6211177;28;84042;-67
2023/06/25 05:19:47;;;;;;;5.40;4.90;;;25.00;81.00;;;;;;6199703;28;84071;-67
2023/06/25 05:22:49;;;;;;;5.68;5.15;;;25.00;80.80;;;;;;6194994;28;83951;-67
2023/06/25 05:25:53;;;;;;;5.80;5.20;;;25.00;80.80;;;;;;6196324;28;84414;-67
2023/06/25 05:28:56;;;;;;;5.28;4.70;;;25.00;80.70;;;;;;6197142;28;83988;-67
2023/06/25 05:31:58;;;;;;;6.28;5.68;;;25.00;80.80;;;;;;6190918;28;84041;-67
2023/06/25 05:35:00;;;;;;;5.97;5.40;;;25.00;80.90;;;;;;6209836;28;83281;-67
2023/06/25 05:38:02;;;;;;;5.72;5.13;;;25.00;80.90;;;;;;6220063;28;83972;-67
2023/06/25 05:41:06;;;;;;;6.75;5.40;;;25.00;81.00;;;;;;6196515;28;83022;-67
2023/06/25 05:44:08;;;;;;;6.18;5.47;;;25.00;81.20;;;;;;6200730;28;83312;-67
2023/06/25 05:47:10;;;;;;;6.10;5.50;;;25.00;81.30;;;;;;6191972;28;83990;-68
2023/06/25 05:50:12;;;;;;;5.65;5.13;;;25.00;81.50;;;;;;6209218;28;83262;-68
2023/06/25 05:53:14;;;;;;;5.70;5.20;;;25.00;81.50;;;;;;6201892;28;83883;-67
2023/06/25 05:56:17;;;;;;;5.18;4.68;;;25.00;81.60;;;;;;6211179;28;84096;-67
2023/06/25 05:59:20;;;;;;;5.55;4.97;;;25.00;81.80;;;;;;6207768;28;84059;-68
2023/06/25 06:02:22;;;;;;;5.75;5.18;;;25.00;81.90;;;;;;6224747;28;82919;-67
2023/06/25 06:05:24;;;;;;;5.50;5.00;;;25.00;81.90;;;;;;6203040;28;82959;-68
2023/06/25 06:08:26;;;;;;;6.38;4.95;;;25.00;82.00;;;;;;6206287;28;84049;-69
2023/06/25 06:11:29;;;;;;;5.40;4.97;;;25.00;82.00;;;;;;6191410;28;84071;-69
2023/06/25 06:14:34;;;;;;;5.85;5.25;;;25.00;82.20;;;;;;6221943;28;83374;-69
2023/06/25 06:17:36;;;;;;;5.13;4.70;;;25.00;82.30;;;;;;6222255;28;86626;-68
2023/06/25 06:20:38;;;;;;;5.30;4.80;;;25.00;82.30;;;;;;6221438;28;83964;-69
2023/06/25 06:23:40;;;;;;;5.40;4.90;;;25.00;82.50;;;;;;6221416;28;83855;-68
2023/06/25 06:26:43;;;;;;;5.40;4.90;;;25.00;82.50;;;;;;6214795;28;83331;-68
2023/06/25 06:29:45;;;;;;;5.55;5.03;;;25.00;82.70;;;;;;6221234;28;84065;-68
2023/06/25 06:32:48;;;;;;;5.43;4.93;;;25.00;82.80;;;;;;6203412;28;83965;-68
2023/06/25 06:35:52;;;;;;;6.00;5.03;;;25.00;82.90;;;;;;6198749;28;84134;-69
2023/06/25 06:38:54;;;;;;;4.97;4.57;;;25.00;83.00;;;;;;6218194;28;83965;-69
2023/06/25 06:41:58;;;;;;;5.55;5.05;;;25.00;83.20;;;;;;6203019;28;84153;-68
2023/06/25 06:45:00;;;;;;;5.47;4.97;;;25.00;83.30;;;;;;6205186;28;83417;-69
2023/06/25 06:48:01;;;;;;;5.30;4.80;;;25.00;83.30;;;;;;6206734;28;83941;-69
2023/06/25 06:51:04;;;;;;;5.25;4.85;;;25.00;83.30;;;;;;6210194;28;84043;-69
2023/06/25 06:54:06;;;;;;;5.82;5.20;;;25.00;83.30;;;;;;6199735;28;85037;-69
2023/06/25 06:57:09;;;;;;;5.65;5.05;;;25.00;83.50;;;;;;6209113;28;84106;-69
2023/06/25 07:00:12;;;;;;;5.63;5.07;;;25.00;83.40;;;;;;6198792;28;83259;-68
2023/06/25 07:03:14;;;;;;;5.18;4.70;;;25.00;83.40;;;;;;6188510;28;82939;-68
2023/06/25 07:06:16;;;;;;;6.22;5.25;;;25.10;83.50;;;;;;6202535;28;82977;-65
2023/06/25 07:09:25;;;;;;;5.85;5.28;;;25.00;83.40;;;;;;6199372;28;84431;-68
2023/06/25 07:12:29;;;;;;;8.05;5.32;;;25.00;83.40;;;;;;6198345;28;84111;-68
2023/06/25 07:15:31;;;;;;;5.97;5.43;;;25.00;83.30;;;;;;6211348;28;83240;-68
2023/06/25 07:18:33;;;;;;;6.43;5.82;;;25.10;83.30;;;;;;6217870;28;83973;-69
2023/06/25 07:21:35;;;;;;;5.75;5.25;;;25.10;83.30;;;;;;6212691;28;83980;-69
2023/06/25 07:24:37;;;;;;;6.90;6.20;;;25.10;83.40;;;;;;6218673;28;84956;-69
2023/06/25 07:27:40;;;;;;;6.55;5.95;;;25.00;83.30;;;;;;6210669;28;83249;-70
2023/06/25 07:30:42;;;;;;;5.97;5.47;;;25.00;83.20;;;;;;6208951;28;82938;-68
2023/06/25 07:33:44;;;;;;;6.00;5.50;;;25.00;83.20;;;;;;6189066;28;84076;-69
2023/06/25 07:36:46;;;;;;;6.28;5.78;;;25.00;83.10;;;;;;6205225;28;84352;-69
2023/06/25 07:39:48;;;;;;;6.75;6.05;;;25.10;83.10;;;;;;6193794;28;84886;-69
2023/06/25 07:42:51;;;;;;;6.10;5.60;;;25.10;83.00;;;;;;6201133;28;83305;-69
2023/06/25 07:45:53;;;;;;;7.20;6.50;;;25.10;83.00;;;;;;6208511;28;83406;-69
2023/06/25 07:48:55;;;;;;;7.28;6.57;;;25.10;83.00;;;;;;6197961;28;84056;-69
2023/06/25 07:51:57;;;;;;;7.60;6.85;;;25.10;83.00;;;;;;6214843;28;86728;-68
2023/06/25 07:54:59;;;;;;;7.50;6.80;;;25.00;82.80;;;;;;6214222;28;84982;-69
2023/06/25 07:58:03;;;;;;;6.90;6.20;;;25.00;82.80;;;;;;6204428;28;84177;-69
2023/06/25 08:01:05;;;;;;;7.35;6.65;;;25.00;82.70;;;;;;6211375;28;84444;-69
2023/06/25 08:04:07;;;;;;;7.70;7.00;;;25.10;82.60;;;;;;6203521;28;83110;-69
2023/06/25 08:07:09;;;;;;;7.28;6.60;;;25.10;82.30;;;;;;6209151;28;84578;-70
2023/06/25 08:10:11;;;;;;;7.20;6.40;;;25.00;82.20;;;;;;6200509;28;84504;-69
2023/06/25 08:13:15;;;;;;;7.40;6.70;;;25.00;82.10;;;;;;6196998;28;88226;-70
2023/06/25 08:16:17;;;;;;;7.05;6.38;;;25.00;82.00;;;;;;6200721;28;88426;-68
2023/06/25 08:19:19;;;;;;;7.40;6.70;;;25.10;82.10;;;;;;6189256;28;89076;-69
2023/06/25 08:22:21;;;;;;;7.80;7.10;;;25.00;81.80;;;;;;6198511;28;89104;-68
2023/06/25 08:25:25;;;;;;;7.00;6.40;;;25.00;81.60;;;;;;6212673;28;90077;-68
2023/06/25 08:28:28;;;;;;;7.65;6.45;;;25.00;81.60;;;;;;6205542;28;89164;-69
2023/06/25 08:31:30;;;;;;;7.25;6.65;;;25.00;81.50;;;;;;6210210;28;89486;-69
2023/06/25 08:34:32;;;;;;;7.18;6.47;;;25.00;81.40;;;;;;6195733;28;89172;-69
2023/06/25 08:37:35;;;;;;;7.82;7.05;;;25.00;81.50;;;;;;6206396;28;88041;-68
2023/06/25 08:40:37;;;;;;;7.07;6.47;;;25.00;81.60;;;;;;6186722;28;89097;-68
2023/06/25 08:43:40;;;;;;;6.97;6.38;;;25.00;81.70;;;;;;6191111;28;88913;-68
2023/06/25 08:46:48;;;;;;;6.97;6.38;;;25.00;81.70;;;;;;6191173;28;88278;-66
2023/06/25 08:49:50;;;;;;;8.27;7.47;;;25.00;81.60;;;;;;6201778;28;89124;-66
2023/06/25 08:52:53;;;;;;;10.02;8.77;;;25.00;83.00;;;;;;6208077;28;89064;-68
2023/06/25 08:55:56;;;;;;;11.65;8.95;;;25.20;84.90;;;;;;6209125;28;90222;-69
2023/06/25 08:58:59;;;;;;;10.48;9.18;;;25.30;84.30;;;;;;6214416;28;89031;-69
2023/06/25 09:02:01;;;;;;;9.63;8.63;;;25.40;79.80;;;;;;6201393;28;89553;-69
2023/06/25 09:05:05;;;;;;;8.50;7.70;;;25.40;77.50;;;;;;6194404;28;88919;-68
2023/06/25 09:08:14;;;;;;;8.77;7.97;;;25.40;77.70;;;;;;6208675;28;91511;-68
2023/06/25 09:11:16;;;;;;;8.93;8.02;;;25.40;78.30;;;;;;6197263;28;87520;-67
2023/06/25 09:14:20;;;;;;;8.70;7.90;;;25.40;78.60;;;;;;6206840;28;89209;-67
2023/06/25 09:17:23;;;;;;;8.40;7.70;;;25.40;78.10;;;;;;6201536;28;88340;-66
2023/06/25 09:20:25;;;;;;;8.48;7.65;;;25.30;78.00;;;;;;6216949;28;89081;-67
2023/06/25 09:23:27;;;;;;;8.68;7.80;;;25.30;77.50;;;;;;6201951;28;89422;-67
2023/06/25 09:26:29;;;;;;;8.65;7.85;;;25.30;77.60;;;;;;6202245;28;90255;-67
2023/06/25 09:29:36;;;;;;;7.90;7.20;;;25.30;76.00;;;;;;6202888;28;89314;-67
2023/06/25 09:32:49;;;;;;;8.40;7.70;;;25.30;76.50;;;;;;6212644;28;88958;-67
2023/06/25 09:35:58;;;;;;;7.65;6.95;;;25.20;76.30;;;;;;6204540;28;87661;-68
2023/06/25 09:39:01;;;;;;;8.20;7.38;;;25.20;76.50;;;;;;6193632;28;88993;-67
2023/06/25 09:42:03;;;;;;;7.90;7.20;;;25.20;75.60;;;;;;6207827;28;87946;-67
2023/06/25 09:45:10;;;;;;;8.68;7.78;;;25.20;75.80;;;;;;6197045;28;89098;-67
2023/06/25 09:48:14;;;;;;;7.82;7.13;;;25.20;74.70;;;;;;6190296;28;88335;-67
2023/06/25 09:51:17;;;;;;;8.13;7.32;;;25.20;74.80;;;;;;6197290;28;89329;-67
2023/06/25 09:54:22;;;;;;;7.22;6.55;;;25.20;75.00;;;;;;6196542;28;89481;-67
2023/06/25 09:57:27;;;;;;;8.00;7.30;;;25.20;74.80;;;;;;6203797;28;89975;-67
2023/06/25 10:00:31;;;;;;;7.75;7.05;;;25.20;75.10;;;;;;6212363;28;89019;-67
2023/06/25 10:03:34;;;;;;;8.02;7.22;;;25.20;75.00;;;;;;6197051;28;89341;-67
2023/06/25 10:06:36;;;;;;;8.50;7.60;;;25.20;74.80;;;;;;6195477;28;89018;-67
2023/06/25 10:09:38;;;;;;;10.45;9.35;;;25.20;74.50;;;;;;6213208;28;88300;-67
2023/06/25 10:12:42;;;;;;;10.02;8.27;;;25.20;73.00;;;;;;6216469;28;89074;-67
2023/06/25 10:15:48;;;;;;;10.75;8.52;;;25.20;72.60;;;;;;6191852;28;89248;-66
2023/06/25 10:18:56;;;;;;;8.27;7.53;;;25.10;72.80;;;;;;6193107;28;88430;-66
2023/06/25 10:22:05;;;;;;;8.30;7.50;;;25.10;72.80;;;;;;6195373;28;89113;-67
2023/06/25 10:25:09;;;;;;;8.13;7.38;;;25.10;72.40;;;;;;6196877;28;89173;-68
2023/06/25 10:28:13;;;;;;;7.40;6.80;;;25.10;72.50;;;;;;6199097;28;89088;-67
2023/06/25 10:31:19;;;;;;;7.80;7.10;;;25.10;73.20;;;;;;6211610;28;89160;-67
2023/06/25 10:34:21;;;;;;;7.28;6.68;;;25.10;73.60;;;;;;6193475;28;87942;-66
2023/06/25 10:37:29;;;;;;;8.10;7.40;;;25.10;73.20;;;;;;6198350;28;89403;-66
2023/06/25 10:40:34;;;;;;;7.90;7.20;;;25.10;72.70;;;;;;6214247;28;89505;-66
2023/06/25 10:43:37;;;;;;;7.22;6.63;;;25.10;73.70;;;;;;6195588;28;91673;-67
2023/06/25 10:46:41;;;;;;;7.18;6.47;;;25.10;72.00;;;;;;6202950;28;88089;-67
2023/06/25 10:49:43;;;;;;;6.78;6.18;;;25.10;69.40;;;;;;6190110;28;87540;-68
2023/06/25 10:52:46;;;;;;;6.93;6.32;;;25.10;69.60;;;;;;6196191;28;89015;-68
2023/06/25 10:55:49;;;;;;;7.25;6.55;;;25.10;69.90;;;;;;6197992;28;89142;-68
2023/06/25 10:58:56;;;;;;;7.43;6.75;;;25.10;70.50;;;;;;6194289;28;90343;-67
2023/06/25 11:02:10;;;;;;;7.25;6.55;;;25.10;71.30;;;;;;6189190;28;89301;-67
2023/06/25 11:05:12;;;;;;;6.82;6.22;;;25.10;72.00;;;;;;6191048;28;89316;-68
2023/06/25 11:08:14;;;;;;;7.10;6.40;;;25.10;72.40;;;;;;6189218;28;89010;-68
2023/06/25 11:11:16;;;;;;;6.93;6.22;;;25.10;72.50;;;;;;6187993;28;88413;-67
2023/06/25 11:14:19;;;;;;;6.90;6.28;;;25.10;72.60;;;;;;6188681;28;88287;-68
2023/06/25 11:17:22;;;;;;;6.75;5.85;;;25.10;73.00;;;;;;6210448;28;88902;-68
2023/06/25 11:20:24;;;;;;;6.60;6.00;;;25.10;71.40;;;;;;6197867;28;88358;-68
2023/06/25 11:23:28;;;;;;;6.95;6.25;;;25.20;70.80;;;;;;6204306;28;88998;-68
2023/06/25 11:26:39;;;;;;;7.35;6.65;;;25.20;70.00;;;;;;6203826;28;89428;-68
2023/06/25 11:29:42;;;;;;;6.75;6.10;;;25.10;68.40;;;;;;6199908;28;91770;-68
2023/06/25 11:32:45;;;;;;;6.55;5.95;;;25.10;68.20;;;;;;6206400;28;89082;-68
2023/06/25 11:35:50;;;;;;;6.60;5.90;;;25.10;66.80;;;;;;6209398;28;89055;-68
2023/06/25 11:38:52;;;;;;;6.50;5.90;;;25.10;66.40;;;;;;6198549;28;89093;-67
2023/06/25 11:41:53;;;;;;;6.40;5.82;;;25.10;66.10;;;;;;6197384;28;89047;-68
2023/06/25 11:45:00;;;;;;;6.80;6.10;;;25.10;66.40;;;;;;6201412;28;89091;-68
2023/06/25 11:48:04;;;;;;;6.55;5.95;;;25.10;67.40;;;;;;6196950;28;89294;-68
2023/06/25 11:51:07;;;;;;;6.63;5.93;;;25.10;68.80;;;;;;6198810;28;88318;-67
2023/06/25 11:54:09;;;;;;;6.32;5.57;;;25.10;68.30;;;;;;6203159;28;89414;-67
2023/06/25 11:57:11;;;;;;;6.50;5.90;;;25.10;68.80;;;;;;6205591;28;88477;-65
2023/06/25 12:00:14;;;;;;;6.15;5.57;;;25.00;68.70;;;;;;6194423;28;90178;-65
2023/06/25 12:03:18;;;;;;;5.97;5.30;;;25.00;67.50;;;;;;6205711;28;89276;-66
2023/06/25 12:06:20;;;;;;;6.30;5.70;;;25.10;65.90;;;;;;6199334;28;89349;-65
2023/06/25 12:09:21;;;;;;;5.75;5.25;;;25.10;65.70;;;;;;6198750;28;87982;-66
2023/06/25 12:12:23;;;;;;;6.25;5.57;;;25.10;65.90;;;;;;6197259;28;89144;-65
2023/06/25 12:15:25;;;;;;;6.00;5.40;;;25.10;66.20;;;;;;6198417;28;89202;-65
2023/06/25 12:18:29;;;;;;;6.30;5.13;;;25.00;68.00;;;;;;6202525;28;88966;-66
2023/06/25 12:21:31;;;;;;;6.45;5.78;;;25.00;67.90;;;;;;6202946;28;88425;-66
2023/06/25 12:24:33;;;;;;;6.28;5.68;;;25.00;66.90;;;;;;6201235;28;88988;-66
2023/06/25 12:27:36;;;;;;;6.20;5.28;;;25.10;67.70;;;;;;6198159;28;89042;-66
2023/06/25 12:30:38;;;;;;;6.63;5.90;;;25.10;67.60;;;;;;6194665;28;90079;-65
2023/06/25 12:33:41;;;;;;;6.53;5.82;;;25.10;68.60;;;;;;6199881;28;89460;-66
2023/06/25 12:36:43;;;;;;;6.43;5.30;;;25.10;68.20;;;;;;6198309;28;89153;-65
2023/06/25 12:39:45;;;;;;;6.00;5.40;;;25.10;68.10;;;;;;6200141;28;89103;-65
2023/06/25 12:42:47;;;;;;;6.32;5.78;;;25.10;68.60;;;;;;6194786;28;88995;-65
2023/06/25 12:45:49;;;;;;;6.10;5.50;;;25.10;67.20;;;;;;6200518;28;89039;-65
2023/06/25 12:48:53;;;;;;;6.07;5.47;;;25.10;67.40;;;;;;6197346;28;90915;-66
2023/06/25 12:51:55;;;;;;;6.28;5.68;;;25.10;67.50;;;;;;6199619;28;88114;-66
2023/06/25 12:54:57;;;;;;;6.75;5.88;;;25.20;67.00;;;;;;6192071;28;89113;-66
2023/06/25 12:57:59;;;;;;;6.50;5.90;;;25.10;67.40;;;;;;6202966;28;89073;-66
2023/06/25 13:01:01;;;;;;;6.53;5.93;;;25.10;68.30;;;;;;6193657;28;90067;-64
2023/06/25 13:04:05;;;;;;;6.80;6.13;;;25.10;69.00;;;;;;6196505;28;88956;-66
2023/06/25 13:07:07;;;;;;;6.38;5.78;;;25.10;69.40;;;;;;6204921;28;89148;-67
2023/06/25 13:10:09;;;;;;;6.20;5.60;;;25.10;69.80;;;;;;6199751;28;89432;-68
2023/06/25 13:13:11;;;;;;;6.50;5.90;;;25.10;70.00;;;;;;6206597;28;89173;-66
2023/06/25 13:16:13;;;;;;;7.40;6.00;;;25.10;70.50;;;;;;6198242;28;89784;-66
2023/06/25 13:19:17;;;;;;;6.88;6.20;;;25.10;68.40;;;;;;6203083;28;88448;-67
2023/06/25 13:22:19;;;;;;;8.65;6.43;;;25.10;68.90;;;;;;6191569;28;88331;-67
2023/06/25 13:25:21;;;;;;;7.15;6.55;;;25.10;69.10;;;;;;6188598;28;88322;-67
2023/06/25 13:28:24;;;;;;;6.82;6.13;;;25.10;69.60;;;;;;6197011;28;89091;-67
2023/06/25 13:31:26;;;;;;;6.97;6.38;;;25.10;69.40;;;;;;6187106;28;91612;-67
2023/06/25 13:34:30;;;;;;;6.65;6.00;;;25.10;70.00;;;;;;6187675;28;89075;-68
2023/06/25 13:37:32;;;;;;;7.47;6.78;;;25.10;69.20;;;;;;6180060;28;88742;-67
2023/06/25 13:40:34;;;;;;;6.80;6.20;;;25.10;69.50;;;;;;6183395;28;89060;-68
2023/06/25 13:43:36;;;;;;;6.80;6.20;;;25.10;69.70;;;;;;6184035;28;88052;-68
2023/06/25 13:46:38;;;;;;;6.47;5.88;;;25.10;69.40;;;;;;6184457;28;89049;-68
2023/06/25 13:49:41;;;;;;;6.80;6.10;;;25.20;69.70;;;;;;6185179;28;89052;-68
2023/06/25 13:52:43;;;;;;;6.75;5.88;;;25.20;70.10;;;;;;6195159;28;87577;-67
2023/06/25 13:55:45;;;;;;;6.95;6.35;;;25.20;70.60;;;;;;6180939;28;87983;-68
2023/06/25 13:58:47;;;;;;;6.65;6.05;;;25.10;68.40;;;;;;6196866;28;89224;-68
2023/06/25 14:01:49;;;;;;;6.80;6.18;;;25.20;69.40;;;;;;6197393;28;90186;-67
2023/06/25 14:04:57;;;;;;;6.90;6.20;;;25.20;69.00;;;;;;6204258;28;89967;-68
2023/06/25 14:07:59;;;;;;;7.15;6.45;;;25.20;68.30;;;;;;6213294;28;88419;-68
2023/06/25 14:11:01;;;;;;;6.60;6.00;;;25.20;68.80;;;;;;6203899;28;89212;-68
2023/06/25 14:14:03;;;;;;;6.50;5.90;;;25.20;67.50;;;;;;6200118;28;90003;-68
2023/06/25 14:17:04;;;;;;;6.90;6.30;;;25.20;68.50;;;;;;6192563;28;89349;-66
2023/06/25 14:20:08;;;;;;;7.30;5.90;;;25.20;68.70;;;;;;6196622;28;89120;-67
2023/06/25 14:23:10;;;;;;;6.55;5.80;;;25.20;70.70;;;;;;6214017;28;88517;-67
2023/06/25 14:26:12;;;;;;;8.75;6.70;;;25.20;72.10;;;;;;6212878;28;87946;-68
2023/06/25 14:29:14;;;;;;;8.90;6.38;;;25.20;69.00;;;;;;6204999;28;89069;-68
2023/06/25 14:32:16;;;;;;;9.80;6.20;;;25.20;70.30;;;;;;6199428;28;90039;-68
2023/06/25 14:35:19;;;;;;;7.63;6.80;;;25.20;70.40;;;;;;6201651;28;87983;-68
2023/06/25 14:38:21;;;;;;;7.10;6.40;;;25.20;69.40;;;;;;6193460;28;89114;-68
2023/06/25 14:41:23;;;;;;;7.70;6.30;;;25.20;69.00;;;;;;6197014;28;89235;-68
2023/06/25 14:44:25;;;;;;;7.00;6.22;;;25.20;69.20;;;;;;6192601;28;88306;-69
2023/06/25 14:47:27;;;;;;;7.40;6.22;;;25.20;69.20;;;;;;6184238;28;89041;-68
2023/06/25 14:50:31;;;;;;;8.15;7.30;;;25.20;70.80;;;;;;6202396;28;89037;-68
2023/06/25 14:53:36;;;;;;;8.27;7.25;;;25.20;68.40;;;;;;6211948;28;88335;-68
2023/06/25 14:56:38;;;;;;;7.55;6.85;;;25.20;68.20;;;;;;6195345;28;89564;-68
2023/06/25 14:59:40;;;;;;;9.30;6.65;;;25.30;68.10;;;;;;6198556;28;89092;-68
2023/06/25 15:02:42;;;;;;;7.82;6.53;;;25.30;68.90;;;;;;6196527;28;90006;-68
2023/06/25 15:05:45;;;;;;;8.20;6.80;;;25.20;69.80;;;;;;6209406;28;89065;-67
2023/06/25 15:08:47;;;;;;;10.30;6.57;;;25.20;70.70;;;;;;6200871;28;89059;-67
2023/06/25 15:11:49;;;;;;;15.65;7.03;;;25.20;72.70;;;;;;6191665;28;89051;-68
2023/06/25 15:14:51;;;;;;;9.75;6.93;;;25.20;74.10;;;;;;6191977;28;89275;-67
2023/06/25 15:17:53;;;;;;;13.65;7.32;;;25.30;76.20;;;;;;6185710;28;89015;-67
2023/06/25 15:20:56;;;;;;;12.18;7.18;;;25.30;77.00;;;;;;6193529;28;88623;-66
2023/06/25 15:23:58;;;;;;;12.27;6.85;;;25.40;76.90;;;;;;6192987;28;88352;-66
2023/06/25 15:27:01;;;;;;;8.77;6.57;;;25.40;76.70;;;;;;6198981;28;89336;-66
2023/06/25 15:30:03;;;;;;;8.90;6.80;;;25.50;76.50;;;;;;6210865;28;89187;-67
2023/06/25 15:33:04;;;;;;;9.18;6.72;;;25.40;76.30;;;;;;6196157;28;89981;-68
2023/06/25 15:36:08;;;;;;;9.68;6.72;;;25.50;78.40;;;;;;6191637;28;88041;-67
2023/06/25 15:39:10;;;;;;;11.65;7.50;;;25.50;80.20;;;;;;6210157;28;88145;-67
2023/06/25 15:42:12;;;;;;;10.52;6.70;;;25.50;80.20;;;;;;6206470;28;89154;-67
2023/06/25 15:45:14;;;;;;;10.80;6.43;;;25.50;80.40;;;;;;6212452;28;89109;-67
2023/06/25 15:48:17;;;;;;;9.90;6.90;;;25.50;80.70;;;;;;6203517;28;89117;-67
2023/06/25 15:51:20;;;;;;;9.80;6.68;;;25.50;80.70;;;;;;6192718;28;89099;-67